Boudicca — C6VA3 — position and weather

sailwx.info

Track history (hours):
 
Tides and Currents Weather Stations Pressure Air Temp Water Temp Dewpoint Dewpoint Depression Visibility Wind Speed Wind Dir Waves Ship Positions

Boudicca

Last reported at 2018-Oct-10 14:57 UTC. Time now 2018-Oct-22 09:59 UTC.
Position N 18°33' E 072°30'.
Warning: this ship's position is 11 days out of date.

Length 205 m; draft 7.5 m.

Type: Passenger vessel. MMSI: 309964000.

Date/timePositionNaut miles runAvg speedWind from/ knotsBaromVisibWave heightAir tempDewpointWater temp
2018-Oct-10 14:57N 18°33' E 072°30'716.4
2018-Oct-10 14:30N 18°40' E 072°32'816.7
2018-Oct-10 14:00N 18°48' E 072°33'1315.0
2018-Oct-10 13:09N 18°50' E 072°47'45 1.4
2018-Oct-09 04:13N 19°30' E 072°25'312.3
2018-Oct-09 04:00N 19°33' E 072°25'712.6
2018-Oct-09 03:29N 19°39' E 072°26'613.1
2018-Oct-09 03:03N 19°44' E 072°23'113.4
2018-Oct-09 03:00N 19°45' E 072°23'3113.0
2018-Oct-09 00:39N 19°55' E 071°52'211.7
2018-Oct-09 00:30N 19°55' E 071°50'512.1
2018-Oct-09 00:03N 19°55' E 071°44'112.3
2018-Oct-09 00:00N 19°55' E 071°44'912.3
2018-Oct-08 23:17N 19°55' E 071°34'412.5
2018-Oct-08 22:58N 19°55' E 071°30'1012.2
2018-Oct-08 22:08N 19°57' E 071°20'713.0
2018-Oct-08 21:37N 19°60' E 071°13'213.2
2018-Oct-08 21:29N 20°00' E 071°11'613.1
2018-Oct-08 21:01N 20°04' E 071°06'1114.8
2018-Oct-08 20:14N 20°11' E 070°57'318.2
2018-Oct-08 20:04N 20°13' E 070°54'118.2
2018-Oct-08 20:00N 20°13' E 070°53'1017.5
2018-Oct-08 19:26N 20°17' E 070°43'717.6
2018-Oct-08 19:01N 20°23' E 070°38'018.0
2018-Oct-08 19:00N 20°23' E 070°38'918.0
2018-Oct-08 18:30N 20°27' E 070°29'818.0
2018-Oct-08 18:03N 20°31' E 070°22'117.9
2018-Oct-08 18:01N 20°32' E 070°21'917.9
2018-Oct-08 17:30N 20°36' E 070°13'817.7
2018-Oct-08 17:03N 20°40' E 070°05'117.7
2018-Oct-08 17:00N 20°40' E 070°04'816.6
2018-Oct-08 16:30N 20°46' E 069°58'817.5
2018-Oct-08 16:03N 20°52' E 069°53'117.4
2018-Oct-08 16:00N 20°53' E 069°52'  
Track history (hours):
 
Tides and Currents Weather Stations Pressure Air Temp Water Temp Dewpoint Dewpoint Depression Visibility Wind Speed Wind Dir Waves Ship Positions

Boudicca

Last reported at 2018-Oct-10 14:57 UTC. Time now 2018-Oct-22 09:59 UTC.
Position N 18°33' E 072°30'.
Warning: this ship's position is 11 days out of date.

Length 205 m; draft 7.5 m.

Type: Passenger vessel. MMSI: 309964000.

Date/timePositionNaut miles runAvg speedWind from/ knotsBaromVisibWave heightAir tempDewpointWater temp
2018-Oct-10 14:57N 18°33' E 072°30'716.4
2018-Oct-10 14:30N 18°40' E 072°32'816.7
2018-Oct-10 14:00N 18°48' E 072°33'1315.0
2018-Oct-10 13:09N 18°50' E 072°47'45 1.4
2018-Oct-09 04:13N 19°30' E 072°25'312.3
2018-Oct-09 04:00N 19°33' E 072°25'712.6
2018-Oct-09 03:29N 19°39' E 072°26'613.1
2018-Oct-09 03:03N 19°44' E 072°23'113.4
2018-Oct-09 03:00N 19°45' E 072°23'3113.0
2018-Oct-09 00:39N 19°55' E 071°52'211.7
2018-Oct-09 00:30N 19°55' E 071°50'512.1
2018-Oct-09 00:03N 19°55' E 071°44'112.3
2018-Oct-09 00:00N 19°55' E 071°44'912.3
2018-Oct-08 23:17N 19°55' E 071°34'412.5
2018-Oct-08 22:58N 19°55' E 071°30'1012.2
2018-Oct-08 22:08N 19°57' E 071°20'713.0
2018-Oct-08 21:37N 19°60' E 071°13'213.2
2018-Oct-08 21:29N 20°00' E 071°11'613.1
2018-Oct-08 21:01N 20°04' E 071°06'1114.8
2018-Oct-08 20:14N 20°11' E 070°57'318.2
2018-Oct-08 20:04N 20°13' E 070°54'118.2
2018-Oct-08 20:00N 20°13' E 070°53'1017.5
2018-Oct-08 19:26N 20°17' E 070°43'717.6
2018-Oct-08 19:01N 20°23' E 070°38'018.0
2018-Oct-08 19:00N 20°23' E 070°38'918.0
2018-Oct-08 18:30N 20°27' E 070°29'818.0
2018-Oct-08 18:03N 20°31' E 070°22'117.9
2018-Oct-08 18:01N 20°32' E 070°21'917.9
2018-Oct-08 17:30N 20°36' E 070°13'817.7
2018-Oct-08 17:03N 20°40' E 070°05'117.7
2018-Oct-08 17:00N 20°40' E 070°04'816.6
2018-Oct-08 16:30N 20°46' E 069°58'817.5
2018-Oct-08 16:03N 20°52' E 069°53'117.4
2018-Oct-08 16:00N 20°53' E 069°52'  

Dump ship's entire track history